Time;durP1;ratioP1;P1;durP2;ratioP2;P2;SDS_P1;SDS_P2;PMS_P1;PMS_P2;Temp;Humidity;BMP_temperature;BMP_pressure;BME280_temperature;BME280_humidity;BME280_pressure;Samples;Min_cycle;Max_cycle;Signal;HPM_P1;HPM_P2
2023/03/17 00:00:54;;;;;;;0.82;0.70;;;;;;;;;;4600703;27;20192;-61
2023/03/17 00:03:05;;;;;;;0.77;0.70;;;;;;;;;;4600745;27;20055;-60
2023/03/17 00:05:16;;;;;;;0.98;0.88;;;;;;;;;;4617213;27;20025;-61
2023/03/17 00:07:26;;;;;;;0.90;0.60;;;;;;;;;;4603016;27;20190;-61
2023/03/17 00:09:37;;;;;;;0.70;0.70;;;;;;;;;;4616981;27;23403;-60
2023/03/17 00:11:47;;;;;;;0.70;0.70;;;;;;;;;;4617664;27;20031;-61
2023/03/17 00:13:58;;;;;;;1.05;0.88;;;;;;;;;;4591205;27;20058;-60
2023/03/17 00:16:20;;;;;;;0.90;0.80;;;;;;;;;;4598530;27;20043;-61
2023/03/17 00:18:32;;;;;;;0.80;0.80;;;;;;;;;;4598744;27;20036;-61
2023/03/17 00:20:43;;;;;;;0.90;0.90;;;;;;;;;;4615960;27;20027;-61
2023/03/17 00:22:56;;;;;;;0.93;0.85;;;;;;;;;;4599572;27;20085;-60
2023/03/17 00:25:17;;;;;;;0.85;0.82;;;;;;;;;;4616532;27;20031;-61
2023/03/17 00:27:28;;;;;;;1.02;0.90;;;;;;;;;;4616636;27;20042;-61
2023/03/17 00:29:39;;;;;;;0.70;0.70;;;;;;;;;;4600739;27;20073;-60
2023/03/17 00:31:50;;;;;;;1.05;0.80;;;;;;;;;;4581160;27;20115;-60
2023/03/17 00:34:00;;;;;;;0.77;0.77;;;;;;;;;;4602244;27;20027;-62
2023/03/17 00:36:16;;;;;;;0.95;0.80;;;;;;;;;;4600855;27;20408;-61
2023/03/17 00:38:28;;;;;;;1.02;0.90;;;;;;;;;;4607918;27;20036;-60
2023/03/17 00:40:43;;;;;;;0.80;0.80;;;;;;;;;;4601922;27;20045;-61
2023/03/17 00:42:54;;;;;;;0.80;0.80;;;;;;;;;;4615936;27;20042;-61
2023/03/17 00:45:05;;;;;;;0.77;0.77;;;;;;;;;;4583945;27;20503;-60
2023/03/17 00:47:17;;;;;;;0.70;0.70;;;;;;;;;;4598516;27;20109;-60
2023/03/17 00:49:27;;;;;;;0.75;0.70;;;;;;;;;;4616492;27;20035;-61
2023/03/17 00:51:38;;;;;;;0.70;0.70;;;;;;;;;;4601273;27;21227;-61
2023/03/17 00:53:48;;;;;;;0.80;0.80;;;;;;;;;;4600127;27;28974;-61
2023/03/17 00:55:59;;;;;;;0.70;0.70;;;;;;;;;;4602983;27;20766;-61
2023/03/17 00:58:17;;;;;;;0.70;0.65;;;;;;;;;;4590930;27;20039;-60
2023/03/17 01:00:28;;;;;;;0.82;0.82;;;;;;;;;;4590122;27;20087;-60
2023/03/17 01:02:39;;;;;;;0.82;0.80;;;;;;;;;;4598239;27;20046;-61
2023/03/17 01:04:49;;;;;;;1.10;0.90;;;;;;;;;;4615912;27;20263;-61
2023/03/17 01:07:00;;;;;;;0.80;0.80;;;;;;;;;;4596817;27;20043;-61
2023/03/17 01:09:13;;;;;;;0.80;0.80;;;;;;;;;;4596396;27;20039;-61
2023/03/17 01:11:24;;;;;;;0.93;0.90;;;;;;;;;;4600583;27;20032;-61
2023/03/17 01:13:35;;;;;;;0.95;0.90;;;;;;;;;;4615520;27;30629;-61
2023/03/17 01:15:47;;;;;;;0.93;0.70;;;;;;;;;;4602357;27;20915;-61
2023/03/17 01:17:59;;;;;;;0.98;0.60;;;;;;;;;;4605716;27;20126;-61
2023/03/17 01:20:16;;;;;;;0.80;0.80;;;;;;;;;;4596572;27;20143;-61
2023/03/17 01:22:26;;;;;;;0.80;0.80;;;;;;;;;;4596816;27;20042;-61
2023/03/17 01:24:36;;;;;;;0.77;0.75;;;;;;;;;;4606544;27;35369;-61
2023/03/17 01:26:47;;;;;;;0.70;0.70;;;;;;;;;;4600895;27;20023;-60
2023/03/17 01:28:57;;;;;;;0.80;0.80;;;;;;;;;;4597938;27;20031;-61
2023/03/17 01:31:08;;;;;;;0.80;0.80;;;;;;;;;;4616977;27;35571;-61
2023/03/17 01:33:19;;;;;;;0.85;0.70;;;;;;;;;;4616563;27;20065;-61
2023/03/17 01:35:30;;;;;;;0.80;0.80;;;;;;;;;;4615622;27;20030;-61
2023/03/17 01:37:41;;;;;;;0.80;0.80;;;;;;;;;;4602007;27;20039;-61
2023/03/17 01:39:51;;;;;;;0.70;0.70;;;;;;;;;;4595407;27;20035;-60
2023/03/17 01:42:03;;;;;;;0.77;0.75;;;;;;;;;;4595675;27;20109;-59
2023/03/17 01:44:16;;;;;;;0.95;0.90;;;;;;;;;;4597780;27;20553;-59
2023/03/17 01:46:30;;;;;;;0.88;0.80;;;;;;;;;;4598256;27;20644;-59
2023/03/17 01:48:48;;;;;;;0.70;0.70;;;;;;;;;;4597232;27;20067;-58
2023/03/17 01:50:58;;;;;;;0.70;0.70;;;;;;;;;;4578959;27;20028;-59
2023/03/17 01:53:10;;;;;;;0.80;0.80;;;;;;;;;;4589569;27;20027;-59
2023/03/17 01:55:21;;;;;;;0.80;0.65;;;;;;;;;;4615072;27;20031;-59
2023/03/17 01:57:52;;;;;;;0.80;0.80;;;;;;;;;;4606723;27;21097;-59
2023/03/17 02:00:09;;;;;;;1.00;0.90;;;;;;;;;;4605813;27;20042;-59
2023/03/17 02:02:30;;;;;;;1.00;0.90;;;;;;;;;;4616474;27;20039;-59
2023/03/17 02:04:41;;;;;;;1.00;0.90;;;;;;;;;;4595980;27;20032;-59
2023/03/17 02:06:52;;;;;;;1.05;0.90;;;;;;;;;;4616279;27;20042;-59
2023/03/17 02:09:02;;;;;;;1.00;0.93;;;;;;;;;;4615128;27;21525;-59
2023/03/17 02:11:14;;;;;;;1.27;1.10;;;;;;;;;;4584240;27;20036;-59
2023/03/17 02:13:25;;;;;;;1.00;0.90;;;;;;;;;;4600744;27;20112;-61
2023/03/17 02:15:42;;;;;;;1.17;0.90;;;;;;;;;;4607545;27;20086;-59
2023/03/17 02:17:53;;;;;;;0.93;0.80;;;;;;;;;;4590823;27;20048;-59
2023/03/17 02:20:16;;;;;;;0.77;0.77;;;;;;;;;;4615009;27;20103;-59
2023/03/17 02:22:26;;;;;;;0.90;0.90;;;;;;;;;;4607162;27;20142;-60
2023/03/17 02:24:42;;;;;;;0.80;0.80;;;;;;;;;;4616053;27;20023;-59
2023/03/17 02:26:54;;;;;;;0.55;0.50;;;;;;;;;;4605579;27;20698;-59
2023/03/17 02:29:05;;;;;;;0.60;0.57;;;;;;;;;;4599213;27;20042;-60
2023/03/17 02:31:16;;;;;;;0.70;0.70;;;;;;;;;;4602429;27;20031;-60
2023/03/17 02:33:27;;;;;;;0.80;0.63;;;;;;;;;;4601134;27;20035;-60
2023/03/17 02:35:39;;;;;;;0.70;0.70;;;;;;;;;;4618078;27;20035;-60
2023/03/17 02:37:49;;;;;;;0.70;0.70;;;;;;;;;;4592603;27;20032;-60
2023/03/17 02:40:01;;;;;;;0.70;0.70;;;;;;;;;;4617617;27;20521;-60
2023/03/17 02:42:12;;;;;;;0.95;0.80;;;;;;;;;;4608823;27;20035;-60
2023/03/17 02:44:22;;;;;;;0.75;0.75;;;;;;;;;;4609683;27;20035;-60
2023/03/17 02:46:33;;;;;;;1.15;1.05;;;;;;;;;;4617756;27;20127;-60
2023/03/17 02:48:44;;;;;;;0.90;0.90;;;;;;;;;;4602534;27;20084;-60
2023/03/17 02:50:55;;;;;;;1.10;1.00;;;;;;;;;;4603335;27;20551;-60
2023/03/17 02:53:06;;;;;;;1.10;0.85;;;;;;;;;;4616354;27;30095;-60
2023/03/17 02:55:16;;;;;;;1.00;0.90;;;;;;;;;;4618763;27;20031;-61
2023/03/17 02:57:27;;;;;;;0.80;0.80;;;;;;;;;;4599339;27;20044;-60
2023/03/17 02:59:37;;;;;;;0.80;0.70;;;;;;;;;;4616214;27;38940;-60
2023/03/17 03:01:49;;;;;;;0.80;0.80;;;;;;;;;;4616038;27;22712;-60
2023/03/17 03:04:00;;;;;;;1.00;0.90;;;;;;;;;;4618606;27;20542;-59
2023/03/17 03:06:10;;;;;;;1.00;0.90;;;;;;;;;;4617406;27;20027;-60
2023/03/17 03:08:20;;;;;;;1.00;0.90;;;;;;;;;;4609207;27;20026;-60
2023/03/17 03:10:31;;;;;;;1.00;0.88;;;;;;;;;;4618514;27;20502;-60
2023/03/17 03:12:41;;;;;;;1.05;0.88;;;;;;;;;;4618391;27;20023;-60
2023/03/17 03:14:52;;;;;;;1.15;0.85;;;;;;;;;;4602377;27;20073;-60
2023/03/17 03:17:03;;;;;;;1.05;0.80;;;;;;;;;;4618110;27;33441;-60
2023/03/17 03:19:13;;;;;;;1.38;1.00;;;;;;;;;;4618402;27;20037;-60
2023/03/17 03:21:24;;;;;;;1.00;0.90;;;;;;;;;;4618212;27;27097;-61
2023/03/17 03:23:34;;;;;;;0.73;0.73;;;;;;;;;;4618393;27;20027;-60
2023/03/17 03:25:45;;;;;;;0.90;0.90;;;;;;;;;;4617827;27;20142;-60
2023/03/17 03:27:55;;;;;;;1.00;0.90;;;;;;;;;;4590986;27;20537;-60
2023/03/17 03:30:07;;;;;;;0.80;0.77;;;;;;;;;;4598414;27;20399;-60
2023/03/17 03:32:17;;;;;;;1.00;0.90;;;;;;;;;;4618593;27;20023;-61
2023/03/17 03:34:28;;;;;;;1.05;1.00;;;;;;;;;;4617090;27;20829;-60
2023/03/17 03:36:38;;;;;;;1.00;0.90;;;;;;;;;;4609288;27;20114;-60
2023/03/17 03:38:48;;;;;;;1.05;0.95;;;;;;;;;;4597146;27;27724;-59
2023/03/17 03:40:59;;;;;;;0.85;0.85;;;;;;;;;;4617978;27;26019;-60
2023/03/17 03:43:10;;;;;;;1.10;1.00;;;;;;;;;;4601581;27;20032;-60
2023/03/17 03:45:20;;;;;;;1.50;1.05;;;;;;;;;;4616104;27;20051;-60
2023/03/17 03:47:30;;;;;;;0.70;0.70;;;;;;;;;;4598073;27;20070;-60
2023/03/17 03:49:41;;;;;;;0.80;0.80;;;;;;;;;;4617237;27;20050;-61
2023/03/17 03:51:51;;;;;;;0.88;0.88;;;;;;;;;;4618264;27;20072;-60
2023/03/17 03:54:02;;;;;;;0.80;0.80;;;;;;;;;;4617251;27;24267;-60
2023/03/17 03:56:13;;;;;;;1.08;0.95;;;;;;;;;;4615958;27;33129;-60
2023/03/17 03:58:23;;;;;;;1.30;1.20;;;;;;;;;;4597823;27;20035;-60
2023/03/17 04:00:34;;;;;;;0.90;0.90;;;;;;;;;;4608453;27;30398;-60
2023/03/17 04:02:45;;;;;;;1.20;1.10;;;;;;;;;;4616722;27;20092;-60
2023/03/17 04:04:56;;;;;;;0.90;0.90;;;;;;;;;;4608766;27;20760;-60
2023/03/17 04:07:07;;;;;;;1.10;1.00;;;;;;;;;;4617228;27;20031;-60
2023/03/17 04:09:17;;;;;;;1.10;0.88;;;;;;;;;;4615802;27;20466;-60
2023/03/17 04:11:28;;;;;;;1.13;1.02;;;;;;;;;;4615879;27;30072;-61
2023/03/17 04:13:38;;;;;;;1.15;1.05;;;;;;;;;;4616415;27;20039;-60
2023/03/17 04:15:49;;;;;;;1.10;1.00;;;;;;;;;;4616792;27;20138;-60
2023/03/17 04:17:59;;;;;;;1.17;1.08;;;;;;;;;;4596326;27;20479;-60
2023/03/17 04:20:11;;;;;;;0.93;0.93;;;;;;;;;;4617293;27;20065;-61
2023/03/17 04:22:22;;;;;;;1.00;0.90;;;;;;;;;;4595581;27;20038;-61
2023/03/17 04:24:33;;;;;;;1.00;1.00;;;;;;;;;;4605251;27;20087;-60
2023/03/17 04:26:44;;;;;;;1.30;1.10;;;;;;;;;;4615762;27;20035;-64
2023/03/17 04:28:55;;;;;;;1.02;1.00;;;;;;;;;;4600718;27;25511;-61
2023/03/17 04:31:06;;;;;;;1.00;0.90;;;;;;;;;;4596145;27;20094;-60
2023/03/17 04:33:17;;;;;;;0.90;0.90;;;;;;;;;;4617182;27;20031;-62
2023/03/17 04:35:28;;;;;;;1.10;1.00;;;;;;;;;;4599510;27;20058;-60
2023/03/17 04:37:39;;;;;;;0.80;0.80;;;;;;;;;;4597350;27;20660;-60
2023/03/17 04:39:50;;;;;;;1.27;1.10;;;;;;;;;;4583693;27;20055;-60
2023/03/17 04:42:00;;;;;;;1.08;1.00;;;;;;;;;;4596981;27;20056;-60
2023/03/17 04:44:11;;;;;;;0.93;0.85;;;;;;;;;;4601451;27;27284;-60
2023/03/17 04:46:21;;;;;;;1.20;1.10;;;;;;;;;;4596717;27;20061;-60
2023/03/17 04:48:32;;;;;;;0.90;0.90;;;;;;;;;;4616771;27;20051;-60
2023/03/17 04:50:44;;;;;;;1.00;0.90;;;;;;;;;;4595663;27;20036;-60
2023/03/17 04:52:54;;;;;;;1.20;1.10;;;;;;;;;;4618206;27;20039;-60
2023/03/17 04:55:07;;;;;;;0.90;0.90;;;;;;;;;;4616591;27;20043;-60
2023/03/17 04:57:17;;;;;;;0.93;0.90;;;;;;;;;;4616183;27;20554;-60
2023/03/17 04:59:28;;;;;;;1.30;0.98;;;;;;;;;;4616574;27;20027;-60
2023/03/17 05:01:38;;;;;;;1.10;1.00;;;;;;;;;;4615646;27;24709;-60
2023/03/17 05:03:48;;;;;;;1.17;1.08;;;;;;;;;;4616243;27;20294;-60
2023/03/17 05:06:00;;;;;;;0.98;0.90;;;;;;;;;;4616905;27;20027;-60
2023/03/17 05:08:10;;;;;;;1.10;1.00;;;;;;;;;;4615725;27;20043;-60
2023/03/17 05:10:21;;;;;;;1.08;1.00;;;;;;;;;;4617538;27;20015;-60
2023/03/17 05:12:31;;;;;;;1.00;0.90;;;;;;;;;;4599191;27;20821;-59
2023/03/17 05:14:42;;;;;;;0.80;0.80;;;;;;;;;;4615235;27;20031;-60
2023/03/17 05:16:52;;;;;;;1.77;1.00;;;;;;;;;;4617328;27;20155;-60
2023/03/17 05:19:02;;;;;;;1.00;0.90;;;;;;;;;;4589471;27;20127;-60
2023/03/17 05:21:13;;;;;;;1.00;0.90;;;;;;;;;;4616638;27;20031;-60
2023/03/17 05:23:24;;;;;;;1.67;0.85;;;;;;;;;;4615228;27;20470;-60
2023/03/17 05:25:35;;;;;;;0.90;0.90;;;;;;;;;;4614606;27;20042;-60
2023/03/17 05:27:46;;;;;;;0.98;0.98;;;;;;;;;;4614041;27;20037;-60
2023/03/17 05:29:56;;;;;;;0.82;0.82;;;;;;;;;;4613898;27;20114;-60
2023/03/17 05:32:06;;;;;;;1.10;1.00;;;;;;;;;;4615917;27;20554;-60
2023/03/17 05:34:17;;;;;;;1.15;0.90;;;;;;;;;;4612732;27;20039;-59
2023/03/17 05:36:27;;;;;;;0.85;0.85;;;;;;;;;;4613198;27;21558;-60
2023/03/17 05:38:38;;;;;;;0.95;0.90;;;;;;;;;;4614175;27;20471;-60
2023/03/17 05:40:50;;;;;;;0.75;0.75;;;;;;;;;;4613931;27;20483;-60
2023/03/17 05:43:00;;;;;;;0.98;0.88;;;;;;;;;;4597039;27;20625;-60
2023/03/17 05:45:11;;;;;;;1.10;0.90;;;;;;;;;;4596936;27;20134;-60
2023/03/17 05:47:22;;;;;;;1.20;1.10;;;;;;;;;;4613205;27;20042;-61
2023/03/17 05:49:32;;;;;;;1.00;0.90;;;;;;;;;;4612846;27;20031;-61
2023/03/17 05:51:43;;;;;;;1.10;1.00;;;;;;;;;;4614143;27;20054;-61
2023/03/17 05:53:53;;;;;;;0.93;0.90;;;;;;;;;;4613718;27;20035;-61
2023/03/17 05:56:05;;;;;;;1.02;0.95;;;;;;;;;;4613025;27;20031;-60
2023/03/17 05:58:15;;;;;;;1.20;1.10;;;;;;;;;;4614137;27;20137;-61
2023/03/17 06:00:27;;;;;;;0.82;0.82;;;;;;;;;;4612212;27;20032;-61
2023/03/17 06:02:38;;;;;;;1.55;1.40;;;;;;;;;;4600421;27;20032;-61
2023/03/17 06:04:49;;;;;;;1.23;1.10;;;;;;;;;;4585463;27;20036;-61
2023/03/17 06:06:59;;;;;;;1.35;1.00;;;;;;;;;;4601137;27;20071;-61
2023/03/17 06:09:10;;;;;;;1.02;0.93;;;;;;;;;;4618238;27;20043;-61
2023/03/17 06:11:20;;;;;;;1.40;1.23;;;;;;;;;;4614794;27;26231;-61
2023/03/17 06:13:30;;;;;;;1.33;1.08;;;;;;;;;;4618053;27;20116;-61
2023/03/17 06:15:41;;;;;;;1.20;1.10;;;;;;;;;;4617814;27;20462;-62
2023/03/17 06:17:52;;;;;;;1.08;0.98;;;;;;;;;;4617756;27;20149;-61
2023/03/17 06:20:04;;;;;;;1.20;1.10;;;;;;;;;;4617366;27;31607;-61
2023/03/17 06:22:15;;;;;;;1.38;1.10;;;;;;;;;;4618070;27;20041;-61
2023/03/17 06:24:25;;;;;;;2.65;1.10;;;;;;;;;;4617255;27;20636;-61
2023/03/17 06:26:36;;;;;;;1.15;1.05;;;;;;;;;;4618068;27;20027;-61
2023/03/17 06:28:46;;;;;;;1.13;1.00;;;;;;;;;;4616700;27;28417;-63
2023/03/17 06:31:05;;;;;;;1.20;1.10;;;;;;;;;;4613813;27;20046;-62
2023/03/17 06:33:17;;;;;;;1.38;1.10;;;;;;;;;;4617331;27;20018;-61
2023/03/17 06:35:29;;;;;;;1.35;1.13;;;;;;;;;;4617484;27;20301;-63
2023/03/17 06:37:40;;;;;;;1.80;1.10;;;;;;;;;;4616948;27;20509;-60
2023/03/17 06:39:51;;;;;;;1.65;1.13;;;;;;;;;;4618375;27;20049;-61
2023/03/17 06:42:01;;;;;;;1.17;1.08;;;;;;;;;;4597037;27;20047;-61
2023/03/17 06:44:12;;;;;;;1.10;1.00;;;;;;;;;;4617183;27;20197;-61
2023/03/17 06:46:22;;;;;;;1.20;1.02;;;;;;;;;;4618701;27;20039;-61
2023/03/17 06:48:33;;;;;;;1.08;0.98;;;;;;;;;;4603142;27;21993;-61
2023/03/17 06:50:46;;;;;;;1.38;1.10;;;;;;;;;;4618189;27;20019;-61
2023/03/17 06:52:56;;;;;;;1.10;1.00;;;;;;;;;;4599248;27;20046;-61
2023/03/17 06:55:07;;;;;;;1.10;1.00;;;;;;;;;;4609609;27;20512;-61
2023/03/17 06:57:17;;;;;;;1.20;1.00;;;;;;;;;;4599869;27;20132;-61
2023/03/17 06:59:29;;;;;;;1.27;1.17;;;;;;;;;;4616425;27;22932;-61
2023/03/17 07:01:39;;;;;;;1.15;1.05;;;;;;;;;;4617607;27;20035;-61
2023/03/17 07:03:50;;;;;;;1.10;1.00;;;;;;;;;;4616812;27;20035;-61
2023/03/17 07:06:01;;;;;;;1.10;1.00;;;;;;;;;;4617148;27;20031;-59
2023/03/17 07:08:12;;;;;;;1.08;0.98;;;;;;;;;;4617486;27;20038;-61
2023/03/17 07:10:23;;;;;;;1.30;1.20;;;;;;;;;;4615721;27;20126;-61
2023/03/17 07:12:33;;;;;;;1.38;1.20;;;;;;;;;;4617089;27;20027;-61
2023/03/17 07:14:44;;;;;;;1.15;1.05;;;;;;;;;;4615773;27;26219;-61
2023/03/17 07:16:55;;;;;;;1.75;1.20;;;;;;;;;;4619058;27;20035;-61
2023/03/17 07:19:06;;;;;;;1.20;1.10;;;;;;;;;;4616993;27;20863;-61
2023/03/17 07:21:16;;;;;;;1.27;1.17;;;;;;;;;;4597678;27;20077;-60
2023/03/17 07:23:28;;;;;;;1.33;1.00;;;;;;;;;;4598926;27;20047;-61
2023/03/17 07:25:42;;;;;;;1.38;1.10;;;;;;;;;;4617079;27;20719;-62
2023/03/17 07:27:52;;;;;;;1.20;1.10;;;;;;;;;;4615950;27;20079;-62
2023/03/17 07:30:04;;;;;;;1.20;1.10;;;;;;;;;;4596793;27;20038;-61
2023/03/17 07:32:14;;;;;;;1.58;1.00;;;;;;;;;;4617455;27;20510;-61
2023/03/17 07:34:25;;;;;;;1.13;1.02;;;;;;;;;;4616455;27;20015;-61
2023/03/17 07:36:36;;;;;;;1.17;1.10;;;;;;;;;;4599682;27;20579;-61
2023/03/17 07:38:47;;;;;;;1.23;1.10;;;;;;;;;;4617407;27;20049;-61
2023/03/17 07:40:58;;;;;;;1.10;1.00;;;;;;;;;;4616902;27;20023;-61
2023/03/17 07:43:09;;;;;;;1.02;0.90;;;;;;;;;;4598873;27;20062;-61
2023/03/17 07:45:19;;;;;;;1.52;1.00;;;;;;;;;;4597960;27;20035;-63
2023/03/17 07:47:30;;;;;;;0.95;0.90;;;;;;;;;;4618050;27;20531;-61
2023/03/17 07:49:40;;;;;;;1.10;1.00;;;;;;;;;;4595896;27;20035;-62
2023/03/17 07:51:51;;;;;;;1.58;1.10;;;;;;;;;;4598091;27;20387;-61
2023/03/17 07:54:05;;;;;;;1.10;1.00;;;;;;;;;;4615790;27;20838;-61
2023/03/17 07:56:16;;;;;;;1.13;1.02;;;;;;;;;;4615836;27;20130;-61
2023/03/17 07:58:27;;;;;;;1.08;0.98;;;;;;;;;;4597983;27;20228;-61
2023/03/17 08:00:38;;;;;;;1.10;1.00;;;;;;;;;;4618026;27;20727;-61
2023/03/17 08:02:50;;;;;;;1.40;1.10;;;;;;;;;;4615678;27;20107;-61
2023/03/17 08:05:01;;;;;;;0.93;0.93;;;;;;;;;;4615560;27;21462;-61
2023/03/17 08:07:13;;;;;;;1.00;0.90;;;;;;;;;;4617537;27;20035;-61
2023/03/17 08:09:24;;;;;;;1.13;1.00;;;;;;;;;;4604366;27;20023;-60
2023/03/17 08:11:34;;;;;;;1.10;1.00;;;;;;;;;;4617304;27;20035;-61
2023/03/17 08:13:45;;;;;;;1.35;1.15;;;;;;;;;;4619089;27;20027;-60
2023/03/17 08:15:56;;;;;;;1.48;1.10;;;;;;;;;;4611042;27;20031;-61
2023/03/17 08:18:07;;;;;;;1.88;1.10;;;;;;;;;;4600928;27;20039;-61
2023/03/17 08:20:18;;;;;;;1.42;1.05;;;;;;;;;;4599661;27;20067;-61
2023/03/17 08:22:28;;;;;;;1.33;1.23;;;;;;;;;;4619577;27;20526;-60
2023/03/17 08:24:41;;;;;;;1.00;1.00;;;;;;;;;;4619241;27;20085;-61
2023/03/17 08:26:52;;;;;;;1.27;1.17;;;;;;;;;;4616473;27;20633;-61
2023/03/17 08:29:03;;;;;;;1.00;0.90;;;;;;;;;;4593398;27;20232;-61
2023/03/17 08:31:16;;;;;;;1.38;0.98;;;;;;;;;;4599958;27;20032;-61
2023/03/17 08:33:27;;;;;;;1.38;1.00;;;;;;;;;;4600225;27;20023;-60
2023/03/17 08:35:40;;;;;;;0.93;0.93;;;;;;;;;;4620016;27;20036;-61
2023/03/17 08:37:50;;;;;;;0.80;0.80;;;;;;;;;;4618377;27;20075;-61
2023/03/17 08:40:01;;;;;;;1.02;0.95;;;;;;;;;;4603949;27;20127;-61
2023/03/17 08:42:11;;;;;;;1.40;0.93;;;;;;;;;;4619093;27;20031;-61
2023/03/17 08:44:22;;;;;;;1.45;0.90;;;;;;;;;;4592588;27;20496;-61
2023/03/17 08:46:32;;;;;;;1.10;0.90;;;;;;;;;;4618549;27;20027;-61
2023/03/17 08:48:44;;;;;;;0.85;0.82;;;;;;;;;;4618874;27;20035;-61
2023/03/17 08:50:55;;;;;;;1.58;0.90;;;;;;;;;;4600213;27;20648;-60
2023/03/17 08:53:07;;;;;;;0.80;0.80;;;;;;;;;;4618871;27;20035;-60
2023/03/17 08:55:18;;;;;;;1.10;0.80;;;;;;;;;;4617935;27;20064;-61
2023/03/17 08:57:28;;;;;;;1.10;0.80;;;;;;;;;;4597800;27;20044;-61
2023/03/17 08:59:39;;;;;;;0.90;0.90;;;;;;;;;;4598697;27;22813;-60
2023/03/17 09:01:49;;;;;;;1.02;0.80;;;;;;;;;;4619280;27;20027;-60
2023/03/17 09:04:00;;;;;;;0.75;0.70;;;;;;;;;;4618212;27;20046;-60
2023/03/17 09:06:12;;;;;;;0.60;0.60;;;;;;;;;;4599633;27;20019;-60
2023/03/17 09:08:23;;;;;;;0.82;0.70;;;;;;;;;;4619058;27;20671;-61
2023/03/17 09:10:34;;;;;;;1.10;0.70;;;;;;;;;;4597929;27;20027;-61
2023/03/17 09:12:44;;;;;;;0.98;0.80;;;;;;;;;;4603796;27;20114;-61
2023/03/17 09:14:55;;;;;;;0.60;0.60;;;;;;;;;;4599992;27;20031;-62
2023/03/17 09:17:07;;;;;;;1.45;0.80;;;;;;;;;;4580856;27;20078;-61
2023/03/17 09:19:17;;;;;;;0.70;0.70;;;;;;;;;;4615856;27;20070;-61
2023/03/17 09:21:28;;;;;;;0.60;0.60;;;;;;;;;;4597789;27;20114;-61
2023/03/17 09:23:38;;;;;;;1.35;0.70;;;;;;;;;;4618608;27;20061;-61
2023/03/17 09:25:50;;;;;;;1.45;0.80;;;;;;;;;;4585375;27;20118;-61
2023/03/17 09:28:00;;;;;;;1.00;0.70;;;;;;;;;;4599440;27;20130;-61
2023/03/17 09:30:16;;;;;;;1.30;0.90;;;;;;;;;;4608856;27;20399;-61
2023/03/17 09:32:26;;;;;;;0.80;0.80;;;;;;;;;;4599304;27;20070;-61
2023/03/17 09:34:37;;;;;;;0.80;0.80;;;;;;;;;;4616672;27;20134;-61
2023/03/17 09:36:47;;;;;;;0.80;0.80;;;;;;;;;;4596065;27;20074;-60
2023/03/17 09:38:59;;;;;;;0.80;0.80;;;;;;;;;;4617787;27;20035;-59
2023/03/17 09:41:23;;;;;;;1.00;0.90;;;;;;;;;;4600154;27;20142;-60
2023/03/17 09:43:34;;;;;;;1.00;0.80;;;;;;;;;;4556177;27;20048;-60
2023/03/17 09:45:44;;;;;;;0.70;0.70;;;;;;;;;;4597997;27;20585;-60
2023/03/17 09:48:17;;;;;;;0.93;0.70;;;;;;;;;;4578618;27;33866;-61
2023/03/17 09:50:53;;;;;;;0.80;0.70;;;;;;;;;;4579765;27;20028;-60
2023/03/17 09:53:04;;;;;;;0.90;0.80;;;;;;;;;;4582816;27;20075;-61
2023/03/17 09:55:30;;;;;;;1.35;0.70;;;;;;;;;;4578226;27;20622;-60
2023/03/17 09:57:42;;;;;;;0.80;0.80;;;;;;;;;;4581881;27;20627;-61
2023/03/17 10:00:13;;;;;;;0.80;0.80;;;;;;;;;;4597517;27;20178;-59
2023/03/17 10:02:29;;;;;;;1.00;0.80;;;;;;;;;;4597984;27;20130;-60
2023/03/17 10:04:41;;;;;;;0.75;0.73;;;;;;;;;;4588928;27;20032;-60
2023/03/17 10:07:00;;;;;;;0.90;0.80;;;;;;;;;;4577383;27;20046;-61
2023/03/17 10:09:22;;;;;;;0.90;0.80;;;;;;;;;;4583359;27;20043;-60
2023/03/17 10:11:45;;;;;;;0.80;0.80;;;;;;;;;;4595983;27;20521;-55
2023/03/17 10:14:24;;;;;;;1.02;0.70;;;;;;;;;;4597508;27;20120;-58
2023/03/17 10:16:53;;;;;;;0.60;0.60;;;;;;;;;;4597034;27;20121;-57
2023/03/17 10:19:26;;;;;;;0.68;0.68;;;;;;;;;;4583548;27;20039;-58
2023/03/17 10:21:48;;;;;;;0.70;0.70;;;;;;;;;;4582361;27;20040;-59
2023/03/17 10:24:00;;;;;;;0.65;0.57;;;;;;;;;;4597073;27;20070;-58
2023/03/17 10:26:29;;;;;;;0.60;0.60;;;;;;;;;;4581515;27;20113;-58
2023/03/17 10:28:39;;;;;;;0.57;0.50;;;;;;;;;;4598009;27;20039;-58
2023/03/17 10:30:50;;;;;;;0.65;0.60;;;;;;;;;;4578957;27;20040;-57
2023/03/17 10:33:05;;;;;;;0.57;0.57;;;;;;;;;;4579405;27;20085;-60
2023/03/17 10:35:16;;;;;;;0.45;0.45;;;;;;;;;;4582293;27;20582;-60
2023/03/17 10:37:28;;;;;;;0.75;0.60;;;;;;;;;;4597267;27;20027;-59
2023/03/17 10:39:46;;;;;;;0.73;0.52;;;;;;;;;;4597976;27;20638;-60
2023/03/17 10:42:00;;;;;;;0.82;0.50;;;;;;;;;;4598795;27;20039;-62
2023/03/17 10:44:20;;;;;;;0.70;0.50;;;;;;;;;;4598596;27;20055;-61
2023/03/17 10:46:32;;;;;;;0.57;0.57;;;;;;;;;;4598045;27;20126;-61
2023/03/17 10:48:49;;;;;;;0.80;0.80;;;;;;;;;;4582362;27;20039;-61
2023/03/17 10:51:05;;;;;;;0.68;0.60;;;;;;;;;;4575716;27;20031;-61
2023/03/17 10:53:27;;;;;;;0.55;0.55;;;;;;;;;;4582095;27;20076;-60
2023/03/17 10:55:38;;;;;;;0.95;0.50;;;;;;;;;;4600856;27;20632;-60
2023/03/17 10:57:51;;;;;;;0.82;0.60;;;;;;;;;;4600833;27;20141;-61
2023/03/17 11:00:11;;;;;;;0.50;0.50;;;;;;;;;;4583717;27;20043;-61
2023/03/17 11:02:28;;;;;;;0.70;0.60;;;;;;;;;;4586573;27;20024;-60
2023/03/17 11:04:41;;;;;;;0.55;0.55;;;;;;;;;;4601359;27;20031;-61
2023/03/17 11:06:56;;;;;;;0.88;0.60;;;;;;;;;;4600330;27;20578;-60
2023/03/17 11:09:15;;;;;;;1.00;0.90;;;;;;;;;;4601065;27;20562;-60
2023/03/17 11:11:36;;;;;;;0.60;0.60;;;;;;;;;;4588010;27;20720;-61
2023/03/17 11:13:47;;;;;;;0.50;0.50;;;;;;;;;;4592006;27;20126;-61
2023/03/17 11:16:09;;;;;;;0.75;0.70;;;;;;;;;;4600727;27;20130;-64
2023/03/17 11:18:28;;;;;;;1.23;0.57;;;;;;;;;;4576249;27;20293;-61
2023/03/17 11:20:51;;;;;;;0.80;0.60;;;;;;;;;;4584215;27;20024;-61
2023/03/17 11:23:10;;;;;;;0.40;0.40;;;;;;;;;;4599912;27;20027;-61
2023/03/17 11:25:22;;;;;;;0.70;0.60;;;;;;;;;;4599066;27;20531;-64
2023/03/17 11:27:50;;;;;;;0.60;0.60;;;;;;;;;;4582430;27;20043;-61
2023/03/17 11:30:15;;;;;;;0.60;0.60;;;;;;;;;;4583810;27;20123;-63
2023/03/17 11:32:35;;;;;;;0.65;0.50;;;;;;;;;;4581911;27;20060;-60
2023/03/17 11:34:57;;;;;;;0.60;0.52;;;;;;;;;;4599467;27;20082;-60
2023/03/17 11:37:17;;;;;;;0.63;0.50;;;;;;;;;;4600672;27;20043;-61
2023/03/17 11:39:35;;;;;;;0.93;0.70;;;;;;;;;;4600491;27;20040;-60
2023/03/17 11:42:12;;;;;;;0.50;0.50;;;;;;;;;;4586235;27;20091;-60
2023/03/17 11:44:46;;;;;;;0.80;0.60;;;;;;;;;;4600703;27;20046;-61
2023/03/17 11:47:27;;;;;;;0.70;0.63;;;;;;;;;;4601775;27;20116;-61
2023/03/17 11:49:39;;;;;;;0.70;0.50;;;;;;;;;;4601967;27;20957;-60
2023/03/17 11:52:06;;;;;;;0.40;0.40;;;;;;;;;;4585077;27;20035;-60
2023/03/17 11:54:23;;;;;;;0.68;0.60;;;;;;;;;;4591669;27;20035;-60
2023/03/17 11:56:40;;;;;;;0.70;0.52;;;;;;;;;;4600371;27;20047;-60
2023/03/17 11:59:00;;;;;;;0.50;0.50;;;;;;;;;;4567713;27;20085;-60
2023/03/17 12:01:21;;;;;;;0.55;0.50;;;;;;;;;;4566575;27;20197;-60
2023/03/17 12:03:34;;;;;;;0.57;0.50;;;;;;;;;;4585779;27;20040;-61
2023/03/17 12:05:49;;;;;;;0.60;0.60;;;;;;;;;;4598394;27;20039;-60
2023/03/17 12:08:08;;;;;;;0.40;0.40;;;;;;;;;;4600439;27;20566;-62
2023/03/17 12:10:35;;;;;;;0.60;0.60;;;;;;;;;;4583483;27;20630;-61
2023/03/17 12:12:56;;;;;;;0.60;0.60;;;;;;;;;;4585632;27;20157;-60
2023/03/17 12:15:13;;;;;;;0.98;0.50;;;;;;;;;;4579926;27;20032;-60
2023/03/17 12:17:30;;;;;;;0.60;0.50;;;;;;;;;;4588059;27;20981;-60
2023/03/17 12:19:57;;;;;;;0.83;0.60;;;;;;;;;;4582725;27;20039;-61
2023/03/17 12:22:27;;;;;;;0.60;0.50;;;;;;;;;;4573014;27;20247;-61
2023/03/17 12:24:45;;;;;;;0.50;0.50;;;;;;;;;;4587384;27;20036;-62
2023/03/17 12:26:59;;;;;;;0.68;0.63;;;;;;;;;;4581993;27;20032;-61
2023/03/17 12:30:04;;;;;;;0.45;0.45;;;;;;;;;;4598792;27;20023;-61
2023/03/17 12:32:38;;;;;;;0.70;0.60;;;;;;;;;;4530503;28;20112;-61
2023/03/17 12:34:53;;;;;;;0.95;0.68;;;;;;;;;;4557919;27;20053;-59
2023/03/17 12:37:04;;;;;;;0.52;0.50;;;;;;;;;;4597600;27;20076;-61
2023/03/17 12:39:22;;;;;;;0.45;0.45;;;;;;;;;;4581661;27;20036;-60
2023/03/17 12:41:47;;;;;;;0.65;0.55;;;;;;;;;;4581082;27;20067;-61
2023/03/17 12:44:16;;;;;;;0.77;0.70;;;;;;;;;;4598775;27;20055;-60
2023/03/17 12:47:06;;;;;;;1.08;0.77;;;;;;;;;;4572713;27;20105;-62
2023/03/17 12:49:36;;;;;;;0.63;0.60;;;;;;;;;;4592469;27;20047;-60
2023/03/17 12:52:01;;;;;;;0.63;0.63;;;;;;;;;;4579741;27;20070;-61
2023/03/17 12:54:23;;;;;;;1.58;0.80;;;;;;;;;;4578718;27;20067;-61
2023/03/17 12:56:35;;;;;;;1.02;0.63;;;;;;;;;;4589033;27;20048;-61
2023/03/17 12:58:51;;;;;;;0.68;0.60;;;;;;;;;;4579031;27;20562;-61
2023/03/17 13:01:31;;;;;;;0.90;0.73;;;;;;;;;;4578622;27;20793;-60
2023/03/17 13:03:56;;;;;;;0.73;0.70;;;;;;;;;;4569903;27;20032;-61
2023/03/17 13:06:16;;;;;;;0.73;0.70;;;;;;;;;;4598970;27;20061;-61
2023/03/17 13:08:35;;;;;;;0.70;0.60;;;;;;;;;;4583704;27;20101;-61
2023/03/17 13:10:47;;;;;;;0.73;0.73;;;;;;;;;;4598266;27;20566;-61
2023/03/17 13:13:09;;;;;;;0.60;0.60;;;;;;;;;;4598114;27;20031;-60
2023/03/17 13:15:36;;;;;;;0.80;0.80;;;;;;;;;;4596689;27;20036;-61
2023/03/17 13:17:47;;;;;;;0.65;0.65;;;;;;;;;;4600359;27;20047;-61
2023/03/17 13:20:06;;;;;;;0.80;0.70;;;;;;;;;;4579379;27;21757;-61
2023/03/17 13:22:20;;;;;;;1.05;0.80;;;;;;;;;;4600043;27;20038;-61